Bookmark and Share
Track history (hours):
 

Mt New Conquest

Last reported at 2014-Apr-01 19:19 UTC. Time now 2014-Apr-19 00:00 UTC.
Position N 26°25' W 078°43'.
Warning: this ship's position is 17 days out of date.

Length 228 m; draft 8.4 m.

Type: Ship (hazmat cat A). MMSI: 538002089.

NotesDate/timePositionNaut miles runAvg speedWind from/ knotsBaromVisibWave heightAir tempDewpointWater temp
2014-Apr-01 19:19N 26°25' W 078°43'1212.2
2014-Apr-01 18:21N 26°16' W 078°35'1 0.6
2014-Apr-01 17:27N 26°16' W 078°34'1 0.4
2014-Apr-01 16:15N 26°17' W 078°34'1 0.4
2014-Apr-01 14:34N 26°17' W 078°34'0 0.4
2014-Apr-01 13:33N 26°18' W 078°34'0 0.4
2014-Apr-01 12:30N 26°18' W 078°35'0 0.4
2014-Apr-01 11:34N 26°18' W 078°35'1 0.3
2014-Apr-01 09:31N 26°19' W 078°35'0 0.4
2014-Apr-01 08:33N 26°19' W 078°35'0 0.4
2014-Apr-01 07:30N 26°19' W 078°35'0 0.3
2014-Apr-01 06:33N 26°19' W 078°34'0 0.2
2014-Apr-01 05:10N 26°19' W 078°34'1 0.2
2014-Mar-31 23:23N 26°20' W 078°34'0 0.3
2014-Mar-31 22:17N 26°20' W 078°34'2 0.8
2014-Mar-31 20:12N 26°21' W 078°35'1 1.8
2014-Mar-31 19:28N 26°20' W 078°34'910.1
2014-Mar-31 18:33N 26°17' W 078°25'4 3.8
2014-Mar-31 17:33N 26°17' W 078°20'0 0.4
2014-Mar-31 16:33N 26°18' W 078°20'0 0.4
2014-Mar-31 15:33N 26°18' W 078°20'0 0.3
2014-Mar-31 14:33N 26°18' W 078°19'0 0.3
2014-Mar-31 13:34N 26°18' W 078°19'0 0.4
2014-Mar-31 12:33N 26°19' W 078°19'1 0.6
2014-Mar-31 11:32N 26°19' W 078°18'13 0.8
2014-Mar-30 18:31N 26°25' W 078°06'12 0.5
2014-Mar-29 16:12N 26°21' W 078°18'  
2014-Mar-25 13:33N 26°18' W 079°03'10 9.4
2014-Mar-25 12:32N 26°13' W 079°12'1612.4
2014-Mar-25 11:17N 26°00' W 079°22'1013.8
2014-Mar-25 10:32N 25°50' W 079°24'  

Dump ship's entire track history

sailing weather and tide predictions

Mt New Conquest — V7GG4 — position and weather